Cadiz, Philippines
Current Conditions -  °F | °C
As of 5:00 PM on Thursday 18 Dec 2014 (Local Time) from RPVM Reporting Station
Broken Clouds Broken Clouds  
Wind Chill: 82°   Ceiling: 30000
Heat Index: 88°   Visibility: 6mi
Dew Point: 73°   Wind: 15mph
Humidity: 74%   Direction: 360°N
Pressure: 29.85"   Gusts: NA
Location:  10.96°N, 123.31°E
Report Text: RPVM 180900Z 36013KT 9999 FEW020 SCT100 BKN300 28/23 Q1011 RMK A2985
Loading
Personal Weather Stations






























Interactive Weather Map New forecast layout! Learn more

10-Day Weather Forecast

Advertisements
Track Severe Weather on mobile